Terminal Aerodrome Forecast
Issued by NWS

Home | Current Version | Previous Version | Text Only | Print | Product List | Glossary On
Versions: 1 2 3 4 5 6 7 8 9 10 11 12 13 14
693
FTUS46 KSGX 241525 AAA
TAFONT
TAF AMD
KONT 241525Z 2415/2518 VRB04KT P6SM SKC WS015/04020KT
     FM241800 05010KT P6SM SKC
     FM250000 VRB04KT P6SM SKC
     FM251500 03010KT P6SM SKC=

USA.gov is the U.S. government's official web portal to all federal, state and local government web resources and services.